createdAt,value
2018-05-13T00:03:12.836Z,12.27
2018-05-13T00:08:03.852Z,12.07
2018-05-13T00:12:54.906Z,12.63
2018-05-13T00:17:45.956Z,11.97
2018-05-13T00:22:36.961Z,16.17
2018-05-13T00:27:27.971Z,12.77
2018-05-13T00:32:19.019Z,13.10
2018-05-13T00:37:10.058Z,13.50
2018-05-13T00:42:01.840Z,12.87
2018-05-13T00:46:52.869Z,14.27
2018-05-13T00:51:43.939Z,13.10
2018-05-13T00:56:34.957Z,14.20
2018-05-13T01:01:25.996Z,13.77
2018-05-13T01:06:17.754Z,13.80
2018-05-13T01:11:08.796Z,13.50
2018-05-13T01:15:59.824Z,16.47
2018-05-13T01:20:50.891Z,13.60
2018-05-13T01:25:41.908Z,14.40
2018-05-13T01:30:33.669Z,15.20
2018-05-13T01:35:25.512Z,14.63
2018-05-13T01:40:17.303Z,14.80
2018-05-13T01:45:08.346Z,15.30
2018-05-13T01:49:59.396Z,15.83
2018-05-13T01:54:51.174Z,15.37
2018-05-13T01:59:42.195Z,15.20
2018-05-13T02:04:33.234Z,15.73
2018-05-13T02:09:25.371Z,16.37
2018-05-13T02:14:16.485Z,16.73
2018-05-13T02:19:07.519Z,17.27
2018-05-13T02:23:58.552Z,16.60
2018-05-13T02:28:49.581Z,17.07
2018-05-13T02:33:40.606Z,17.17
2018-05-13T02:38:31.665Z,17.73
2018-05-13T02:43:22.675Z,17.67
2018-05-13T02:48:13.700Z,18.13
2018-05-13T02:53:04.728Z,18.57
2018-05-13T02:57:55.738Z,18.53
2018-05-13T03:02:46.780Z,19.43
2018-05-13T03:07:37.801Z,19.20
2018-05-13T03:12:28.911Z,19.80
2018-05-13T03:17:19.979Z,20.00
2018-05-13T03:22:11.756Z,20.50
2018-05-13T03:27:02.751Z,20.53
2018-05-13T03:31:53.814Z,20.40
2018-05-13T03:36:44.851Z,21.43
2018-05-13T03:41:35.857Z,20.93
2018-05-13T03:46:26.894Z,21.43
2018-05-13T03:51:17.964Z,22.17
2018-05-13T03:56:09.012Z,22.27
2018-05-13T04:01:00.051Z,23.13
2018-05-13T04:05:51.129Z,23.30
2018-05-13T04:16:21.329Z,22.83
2018-05-13T04:21:12.352Z,22.90
2018-05-13T04:26:03.376Z,24.43
2018-05-13T04:30:54.436Z,24.70
2018-05-13T04:35:45.463Z,24.47
2018-05-13T04:40:36.507Z,24.40
2018-05-13T04:45:28.297Z,26.10
2018-05-13T04:50:19.372Z,26.87
2018-05-13T04:55:11.132Z,28.17
2018-05-13T05:00:02.177Z,28.43
2018-05-13T05:04:53.216Z,28.47
2018-05-13T05:09:44.308Z,28.33
2018-05-13T05:14:35.333Z,29.10
2018-05-13T05:19:26.362Z,28.13
2018-05-13T05:24:17.403Z,29.57
2018-05-13T05:29:08.438Z,28.10
2018-05-13T05:33:59.531Z,28.33
2018-05-13T05:38:50.540Z,28.63
2018-05-13T05:43:41.571Z,28.73
2018-05-13T05:48:32.588Z,27.33
2018-05-13T05:53:23.619Z,26.30
2018-05-13T05:58:14.688Z,25.67
2018-05-13T06:03:05.727Z,25.10
2018-05-13T06:07:56.732Z,24.73
2018-05-13T06:12:47.755Z,24.13
2018-05-13T06:17:38.778Z,22.37
2018-05-13T06:22:29.800Z,22.80
2018-05-13T06:27:20.848Z,20.93
2018-05-13T06:32:12.628Z,21.40
2018-05-13T06:37:03.676Z,19.67
2018-05-13T06:41:54.728Z,19.47
2018-05-13T06:46:45.761Z,18.97
2018-05-13T06:51:37.538Z,18.67
2018-05-13T06:56:28.564Z,17.33
2018-05-13T07:01:19.593Z,17.03
2018-05-13T07:06:10.603Z,15.53
2018-05-13T07:11:01.625Z,15.67
2018-05-13T07:15:52.642Z,13.90
2018-05-13T07:20:43.681Z,13.37
2018-05-13T07:25:34.744Z,13.80
2018-05-13T07:30:25.773Z,13.23
2018-05-13T07:35:16.831Z,13.37
2018-05-13T07:40:07.882Z,11.57
2018-05-13T07:44:58.918Z,11.33
2018-05-13T07:49:49.947Z,10.53
2018-05-13T07:54:40.972Z,11.33
2018-05-13T07:59:32.210Z,10.50
2018-05-13T08:04:23.246Z,11.10
2018-05-13T08:09:14.327Z,9.90
2018-05-13T08:14:05.406Z,9.77
2018-05-13T08:18:56.421Z,10.00
2018-05-13T08:23:47.505Z,9.27
2018-05-13T08:28:38.536Z,8.30
2018-05-13T08:33:29.588Z,8.17
2018-05-13T08:38:20.653Z,7.77
2018-05-13T08:43:11.699Z,7.27
2018-05-13T08:48:02.757Z,6.07
2018-05-13T08:52:53.763Z,6.77
2018-05-13T08:57:44.966Z,6.57
2018-05-13T09:02:36.003Z,6.10
2018-05-13T09:07:27.044Z,5.63
2018-05-13T09:12:18.100Z,5.10
2018-05-13T09:17:09.855Z,4.97
2018-05-13T09:22:00.879Z,5.53
2018-05-13T09:26:51.981Z,5.00
2018-05-13T09:31:43.781Z,5.40
2018-05-13T09:36:34.884Z,4.47
2018-05-13T09:41:25.910Z,5.13
2018-05-13T09:46:16.940Z,4.67
2018-05-13T09:51:07.949Z,4.93
2018-05-13T09:55:58.974Z,4.90
2018-05-13T10:00:50.008Z,4.97
2018-05-13T10:05:41.033Z,4.70
2018-05-13T10:10:32.087Z,4.60
2018-05-13T10:15:23.115Z,4.17
2018-05-13T10:20:14.230Z,3.87
2018-05-13T10:25:05.281Z,3.93
2018-05-13T10:29:57.094Z,3.90
2018-05-13T10:34:48.247Z,3.70
2018-05-13T10:39:39.518Z,4.00
2018-05-13T10:44:30.540Z,3.70
2018-05-13T10:49:21.569Z,3.90
2018-05-13T10:54:12.586Z,3.50
2018-05-13T10:59:03.608Z,3.70
2018-05-13T11:03:54.656Z,3.37
2018-05-13T11:08:45.693Z,3.87
2018-05-13T11:13:36.728Z,3.43
2018-05-13T11:18:27.774Z,3.40
2018-05-13T11:23:19.605Z,3.40
2018-05-13T11:28:11.392Z,3.13
2018-05-13T11:33:02.454Z,3.60
2018-05-13T11:37:53.477Z,3.90
2018-05-13T11:42:44.547Z,3.30
2018-05-13T11:47:35.592Z,3.50
2018-05-13T11:52:26.654Z,3.70
2018-05-13T11:57:17.665Z,3.60
2018-05-13T12:02:08.702Z,3.50
2018-05-13T12:06:59.729Z,3.50
2018-05-13T12:11:50.966Z,3.50
2018-05-13T12:16:42.736Z,3.60
2018-05-13T12:21:33.768Z,3.77
2018-05-13T12:26:24.847Z,3.77
2018-05-13T12:31:15.887Z,3.80
2018-05-13T12:36:07.731Z,3.73
2018-05-13T12:40:59.730Z,3.60
2018-05-13T12:45:50.845Z,3.40
2018-05-13T12:50:41.913Z,4.03
2018-05-13T12:55:33.705Z,3.97
2018-05-13T13:00:24.772Z,4.17
2018-05-13T13:05:16.555Z,4.07
2018-05-13T13:10:07.606Z,4.17
2018-05-13T13:14:58.620Z,4.10
2018-05-13T13:19:49.736Z,4.13
2018-05-13T13:24:40.764Z,3.87
2018-05-13T13:29:31.868Z,4.10
2018-05-13T13:34:23.015Z,4.60
2018-05-13T13:39:14.091Z,4.53
2018-05-13T13:44:05.941Z,4.00
2018-05-13T13:48:57.788Z,4.20
2018-05-13T13:53:49.727Z,4.07
2018-05-13T13:58:40.824Z,3.43
2018-05-13T14:03:31.880Z,4.07
2018-05-13T14:08:23.675Z,3.57
2018-05-13T14:13:14.744Z,3.67
2018-05-13T14:18:06.678Z,3.60
2018-05-13T14:22:58.476Z,3.80
2018-05-13T14:27:49.583Z,3.93
2018-05-13T14:32:40.614Z,3.60
2018-05-13T14:37:31.661Z,4.10
2018-05-13T14:42:22.761Z,4.33
2018-05-13T14:47:13.799Z,3.60
2018-05-13T14:52:05.011Z,3.60
2018-05-13T14:56:56.033Z,3.60
2018-05-13T15:01:47.054Z,3.93
2018-05-13T15:06:38.136Z,3.50
2018-05-13T15:11:29.269Z,5.03
2018-05-13T15:16:20.307Z,4.90
2018-05-13T15:21:11.333Z,4.03
2018-05-13T15:26:02.547Z,5.53
2018-05-13T15:30:53.598Z,3.90
2018-05-13T15:35:44.701Z,5.10
2018-05-13T15:40:35.877Z,4.60
2018-05-13T15:45:26.974Z,3.90
2018-05-13T15:50:18.020Z,4.00
2018-05-13T15:55:09.127Z,5.07
2018-05-13T16:00:00.192Z,3.83
2018-05-13T16:04:51.985Z,3.47
2018-05-13T16:09:43.130Z,4.13
2018-05-13T16:14:34.211Z,4.23
2018-05-13T16:19:31.124Z,3.23
2018-05-13T16:24:22.142Z,3.77
2018-05-13T16:29:13.210Z,4.17
2018-05-13T16:34:05.062Z,3.40
2018-05-13T16:38:56.104Z,4.00
2018-05-13T16:43:47.272Z,3.80
2018-05-13T16:48:38.331Z,3.90
2018-05-13T16:53:30.091Z,4.07
2018-05-13T16:58:21.154Z,3.80
2018-05-13T17:03:12.424Z,3.67
2018-05-13T17:08:04.190Z,3.70
2018-05-13T17:12:55.244Z,3.77
2018-05-13T17:17:46.333Z,3.73
2018-05-13T17:22:37.362Z,3.67
2018-05-13T17:27:28.484Z,3.60
2018-05-13T17:32:20.343Z,3.80
2018-05-13T17:37:11.520Z,3.40
2018-05-13T17:42:03.389Z,3.30
2018-05-13T17:46:54.516Z,3.53
2018-05-13T17:51:45.556Z,3.27
2018-05-13T17:56:36.664Z,3.50
2018-05-13T18:01:27.697Z,4.00
2018-05-13T18:06:18.728Z,3.53
2018-05-13T18:11:10.012Z,3.80
2018-05-13T18:16:01.786Z,3.50
2018-05-13T18:20:52.871Z,3.60
2018-05-13T18:25:44.732Z,4.03
2018-05-13T18:30:35.754Z,3.37
2018-05-13T18:35:26.778Z,3.63
2018-05-13T18:40:17.835Z,3.47
2018-05-13T18:45:08.925Z,3.70
2018-05-13T18:50:01.852Z,4.03
2018-05-13T18:54:52.908Z,3.63
2018-05-13T18:59:44.733Z,3.90
2018-05-13T19:04:35.792Z,3.90
2018-05-13T19:09:26.828Z,4.13
2018-05-13T19:14:17.911Z,4.50
2018-05-13T19:19:09.705Z,4.20
2018-05-13T19:24:00.782Z,4.30
2018-05-13T19:28:51.881Z,4.13
2018-05-13T19:33:42.943Z,4.10
2018-05-13T19:38:33.978Z,4.20
2018-05-13T19:43:25.127Z,4.90
2018-05-13T19:48:16.862Z,4.53
2018-05-13T19:53:07.909Z,4.50
2018-05-13T19:57:58.997Z,4.17
2018-05-13T20:02:50.232Z,5.07
2018-05-13T20:07:41.142Z,4.63
2018-05-13T20:12:32.176Z,5.00
2018-05-13T20:17:23.234Z,5.20
2018-05-13T20:22:14.280Z,4.30
2018-05-13T20:27:06.049Z,4.90
2018-05-13T20:31:57.081Z,4.27
2018-05-13T20:36:48.152Z,4.87
2018-05-13T20:41:39.226Z,4.57
2018-05-13T20:46:30.278Z,4.63
2018-05-13T20:51:21.493Z,4.80
2018-05-13T20:56:12.396Z,4.80
2018-05-13T21:01:03.439Z,4.57
2018-05-13T21:05:54.519Z,4.10
2018-05-13T21:10:46.315Z,4.67
2018-05-13T21:15:37.382Z,4.70
2018-05-13T21:20:29.220Z,5.00
2018-05-13T21:25:21.008Z,4.83
2018-05-13T21:30:12.099Z,4.60
2018-05-13T21:35:03.875Z,4.67
2018-05-13T21:39:54.964Z,4.93
2018-05-13T21:44:46.040Z,4.57
2018-05-13T21:49:37.085Z,5.77
2018-05-13T21:54:28.948Z,4.70
2018-05-13T21:59:20.048Z,4.77
2018-05-13T22:04:11.825Z,5.40
2018-05-13T22:09:03.272Z,5.20
2018-05-13T22:13:54.773Z,5.43
2018-05-13T22:18:46.076Z,5.20
2018-05-13T22:23:37.385Z,5.23
2018-05-13T22:28:28.494Z,5.00
2018-05-13T22:33:19.598Z,5.10
2018-05-13T22:38:10.635Z,5.40
2018-05-13T22:43:01.725Z,4.70
2018-05-13T22:47:53.573Z,5.03
2018-05-13T22:52:44.673Z,5.23
2018-05-13T22:57:36.460Z,4.80
2018-05-13T23:02:27.518Z,4.93
2018-05-13T23:07:18.570Z,5.27
2018-05-13T23:12:10.361Z,5.00
2018-05-13T23:17:01.401Z,5.27
2018-05-13T23:21:52.467Z,5.00
2018-05-13T23:26:43.532Z,5.70
2018-05-13T23:31:34.645Z,5.17
2018-05-13T23:36:25.732Z,5.30
2018-05-13T23:41:17.509Z,5.30
2018-05-13T23:46:09.321Z,6.10
2018-05-13T23:51:01.096Z,5.40
2018-05-13T23:55:52.155Z,5.47
